createdAt,value
2023-09-27T00:01:14.883Z,5.27
2023-09-27T00:03:43.873Z,5.40
2023-09-27T00:06:10.773Z,5.50
2023-09-27T00:08:37.720Z,5.93
2023-09-27T00:11:05.296Z,6.20
2023-09-27T00:13:32.822Z,6.27
2023-09-27T00:15:59.771Z,6.13
2023-09-27T00:18:26.844Z,5.87
2023-09-27T00:20:53.681Z,6.50
2023-09-27T00:23:20.425Z,6.20
2023-09-27T00:25:47.438Z,5.63
2023-09-27T00:28:14.255Z,5.90
2023-09-27T00:30:41.249Z,5.67
2023-09-27T00:33:08.503Z,5.47
2023-09-27T00:35:35.562Z,5.70
2023-09-27T00:38:02.727Z,5.83
2023-09-27T00:40:29.784Z,5.97
2023-09-27T00:42:56.588Z,5.77
2023-09-27T00:45:23.380Z,6.60
2023-09-27T00:47:52.391Z,6.47
2023-09-27T00:50:19.657Z,6.57
2023-09-27T00:52:49.028Z,6.47
2023-09-27T00:55:21.270Z,7.20
2023-09-27T00:57:50.276Z,7.03
2023-09-27T01:00:17.695Z,7.10
2023-09-27T01:02:45.539Z,7.20
2023-09-27T01:05:12.931Z,7.33
2023-09-27T01:07:41.628Z,7.10
2023-09-27T01:10:10.336Z,8.30
2023-09-27T01:12:40.228Z,7.97
2023-09-27T01:15:07.932Z,8.33
2023-09-27T01:17:37.119Z,7.60
2023-09-27T01:20:05.638Z,7.70
2023-09-27T01:22:32.501Z,7.37
2023-09-27T01:25:02.969Z,7.93
2023-09-27T01:27:30.400Z,8.03
2023-09-27T01:29:57.599Z,8.40
2023-09-27T01:32:24.640Z,8.57
2023-09-27T01:34:51.512Z,8.87
2023-09-27T01:37:18.510Z,8.83
2023-09-27T01:39:46.545Z,9.07
2023-09-27T01:42:13.314Z,8.70
2023-09-27T01:44:40.268Z,8.73
2023-09-27T01:47:07.162Z,9.07
2023-09-27T01:49:34.035Z,9.80
2023-09-27T01:52:01.360Z,9.70
2023-09-27T01:54:28.122Z,10.03
2023-09-27T01:56:54.966Z,9.60
2023-09-27T01:59:21.895Z,9.83
2023-09-27T02:01:48.849Z,9.50
2023-09-27T02:04:15.828Z,9.53
2023-09-27T02:06:42.863Z,9.10
2023-09-27T02:09:10.189Z,9.53
2023-09-27T02:11:37.535Z,9.37
2023-09-27T02:14:05.955Z,10.10
2023-09-27T02:16:34.372Z,8.60
2023-09-27T02:19:01.304Z,9.37
2023-09-27T02:21:28.365Z,9.87
2023-09-27T02:23:55.284Z,10.07
2023-09-27T02:26:22.574Z,9.20
2023-09-27T02:28:49.490Z,9.60
2023-09-27T02:31:16.296Z,9.43
2023-09-27T02:33:43.169Z,9.40
2023-09-27T02:36:10.089Z,8.80
2023-09-27T02:38:38.094Z,9.50
2023-09-27T02:41:05.579Z,9.67
2023-09-27T02:43:32.643Z,9.03
2023-09-27T02:45:59.601Z,8.87
2023-09-27T02:48:26.569Z,7.57
2023-09-27T02:57:23.333Z,8.03
2023-09-27T02:59:50.183Z,8.27
2023-09-27T03:02:17.569Z,8.33
2023-09-27T03:04:44.402Z,8.27
2023-09-27T03:07:13.647Z,8.97
2023-09-27T03:09:40.696Z,8.23
2023-09-27T03:12:07.911Z,8.93
2023-09-27T03:14:34.769Z,9.50
2023-09-27T03:17:02.686Z,9.97
2023-09-27T03:19:29.514Z,9.57
2023-09-27T03:21:56.299Z,9.77
2023-09-27T03:24:23.314Z,9.73
2023-09-27T03:26:50.174Z,9.20
2023-09-27T03:29:17.109Z,9.90
2023-09-27T03:31:44.191Z,9.87
2023-09-27T03:34:11.199Z,10.17
2023-09-27T03:36:37.944Z,10.03
2023-09-27T03:39:06.833Z,9.83
2023-09-27T03:41:34.897Z,10.13
2023-09-27T03:44:01.726Z,9.73
2023-09-27T03:46:31.061Z,10.13
2023-09-27T03:48:57.872Z,10.87
2023-09-27T03:51:28.444Z,11.13
2023-09-27T03:53:55.902Z,11.23
2023-09-27T03:56:24.000Z,11.30
2023-09-27T03:58:51.278Z,11.17
2023-09-27T04:01:18.483Z,11.90
2023-09-27T04:03:45.341Z,11.67
2023-09-27T04:06:12.173Z,10.70
2023-09-27T04:08:39.150Z,10.87
2023-09-27T04:11:07.727Z,10.70
2023-09-27T04:13:34.493Z,10.67
2023-09-27T04:16:02.160Z,10.73
2023-09-27T04:18:29.068Z,10.40
2023-09-27T04:20:55.788Z,9.80
2023-09-27T04:23:22.855Z,10.30
2023-09-27T04:25:49.861Z,10.33
2023-09-27T04:28:17.101Z,10.70
2023-09-27T04:30:44.064Z,10.63
2023-09-27T04:33:10.935Z,10.47
2023-09-27T04:35:38.030Z,10.57
2023-09-27T04:38:05.627Z,10.13
2023-09-27T04:40:32.643Z,10.30
2023-09-27T04:42:59.758Z,10.03
2023-09-27T04:45:26.992Z,9.33
2023-09-27T04:47:54.002Z,10.63
2023-09-27T04:50:20.924Z,10.37
2023-09-27T04:52:48.007Z,10.10
2023-09-27T04:55:16.102Z,10.70
2023-09-27T04:57:43.166Z,10.63
2023-09-27T05:00:20.021Z,10.60
2023-09-27T05:02:48.059Z,11.07
2023-09-27T05:05:15.480Z,10.23
2023-09-27T05:07:42.700Z,11.03
2023-09-27T05:10:10.098Z,11.33
2023-09-27T05:12:37.040Z,11.00
2023-09-27T05:15:04.186Z,10.67
2023-09-27T05:17:31.592Z,11.43
2023-09-27T05:19:59.154Z,10.60
2023-09-27T05:22:26.048Z,10.80
2023-09-27T05:24:53.048Z,11.23
2023-09-27T05:27:19.960Z,10.27
2023-09-27T05:29:47.683Z,11.37
2023-09-27T05:32:14.506Z,10.87
2023-09-27T05:34:41.497Z,11.27
2023-09-27T05:37:08.585Z,11.53
2023-09-27T05:39:35.374Z,10.97
2023-09-27T05:42:02.333Z,10.43
2023-09-27T05:44:29.125Z,10.00
2023-09-27T05:46:56.603Z,11.07
2023-09-27T05:49:23.759Z,9.87
2023-09-27T05:51:50.875Z,9.87
2023-09-27T05:54:20.394Z,9.80
2023-09-27T05:56:51.771Z,9.63
2023-09-27T05:59:19.221Z,10.83
2023-09-27T06:01:46.198Z,9.87
2023-09-27T06:04:13.138Z,10.07
2023-09-27T06:06:40.328Z,10.10
2023-09-27T06:09:07.157Z,10.87
2023-09-27T06:11:34.293Z,10.37
2023-09-27T06:14:01.131Z,8.60
2023-09-27T06:16:28.055Z,9.00
2023-09-27T06:18:55.037Z,9.30
2023-09-27T06:21:23.195Z,9.03
2023-09-27T06:23:49.920Z,7.23
2023-09-27T06:26:16.865Z,6.57
2023-09-27T06:28:43.601Z,6.00
2023-09-27T06:31:10.920Z,5.75
2023-09-27T06:33:40.793Z,6.07
2023-09-27T06:36:11.659Z,5.60
2023-09-27T06:38:39.014Z,5.28
2023-09-27T06:41:06.197Z,5.45
2023-09-27T06:43:33.374Z,5.47
2023-09-27T06:46:02.530Z,5.20
2023-09-27T06:48:30.536Z,5.22
2023-09-27T06:50:57.552Z,5.35
2023-09-27T06:53:27.529Z,6.15
2023-09-27T06:55:58.021Z,5.57
2023-09-27T06:58:25.972Z,5.93
2023-09-27T07:00:53.846Z,5.57
2023-09-27T07:03:26.563Z,6.40
2023-09-27T07:05:54.163Z,5.93
2023-09-27T07:08:22.057Z,6.10
2023-09-27T07:10:49.093Z,6.13
2023-09-27T07:13:16.217Z,6.73
2023-09-27T07:15:47.177Z,6.57
2023-09-27T07:18:14.602Z,7.03
2023-09-27T07:20:43.182Z,7.30
2023-09-27T07:23:16.290Z,7.60
2023-09-27T07:25:44.221Z,7.30
2023-09-27T07:28:11.582Z,7.00
2023-09-27T07:30:39.536Z,6.83
2023-09-27T07:33:12.892Z,7.03
2023-09-27T07:35:44.651Z,7.20
2023-09-27T07:38:12.458Z,6.80
2023-09-27T07:40:39.766Z,7.00
2023-09-27T07:43:06.853Z,6.90
2023-09-27T07:45:35.562Z,7.00
2023-09-27T07:48:02.554Z,6.83
2023-09-27T07:50:32.613Z,7.13
2023-09-27T07:53:00.479Z,6.90
2023-09-27T07:55:27.816Z,6.90
2023-09-27T07:57:55.626Z,7.77
2023-09-27T08:00:28.713Z,7.87
2023-09-27T08:02:59.745Z,7.13
2023-09-27T08:05:26.951Z,7.30
2023-09-27T08:07:53.856Z,7.73
2023-09-27T08:10:22.445Z,8.00
2023-09-27T08:12:49.650Z,7.90
2023-09-27T08:15:18.742Z,7.27
2023-09-27T08:17:47.657Z,7.70
2023-09-27T08:20:14.870Z,8.33
2023-09-27T08:22:42.159Z,7.10
2023-09-27T08:25:15.740Z,7.87
2023-09-27T08:27:43.737Z,7.13
2023-09-27T08:30:13.007Z,7.67
2023-09-27T08:32:40.585Z,7.50
2023-09-27T08:35:08.342Z,7.10
2023-09-27T08:37:35.624Z,7.57
2023-09-27T08:40:06.721Z,7.40
2023-09-27T08:42:35.497Z,6.68
2023-09-27T08:45:04.104Z,6.47
2023-09-27T08:47:31.993Z,6.85
2023-09-27T08:49:59.723Z,5.78
2023-09-27T08:52:29.275Z,5.60
2023-09-27T08:54:56.279Z,5.57
2023-09-27T08:57:29.172Z,5.03
2023-09-27T08:59:56.731Z,4.68
2023-09-27T09:02:25.420Z,5.13
2023-09-27T09:04:52.658Z,4.95
2023-09-27T09:07:20.027Z,5.68
2023-09-27T09:09:47.498Z,5.13
2023-09-27T09:12:14.683Z,4.93
2023-09-27T09:14:51.406Z,5.28
2023-09-27T09:17:26.166Z,5.20
2023-09-27T09:20:16.681Z,5.38
2023-09-27T09:22:47.533Z,5.32
2023-09-27T09:25:15.080Z,5.65
2023-09-27T09:27:45.011Z,6.00
2023-09-27T09:30:13.045Z,5.97
2023-09-27T09:32:53.097Z,6.15
2023-09-27T09:35:31.836Z,5.57
2023-09-27T09:38:00.391Z,6.00
2023-09-27T09:40:27.153Z,5.95
2023-09-27T09:42:54.155Z,5.85
2023-09-27T09:45:21.493Z,6.15
2023-09-27T09:47:48.837Z,5.95
2023-09-27T09:50:20.001Z,5.75
2023-09-27T09:52:58.994Z,6.38
2023-09-27T09:56:01.235Z,5.05
2023-09-27T09:58:29.774Z,5.30
2023-09-27T10:00:59.297Z,4.97
2023-09-27T10:03:35.324Z,4.60
2023-09-27T10:06:03.327Z,5.32
2023-09-27T10:08:36.535Z,4.57
2023-09-27T10:11:07.453Z,4.90
2023-09-27T10:13:37.370Z,5.20
2023-09-27T10:16:05.200Z,5.15
2023-09-27T10:18:36.729Z,5.63
2023-09-27T10:21:04.394Z,5.03
2023-09-27T10:23:47.224Z,4.97
2023-09-27T10:26:30.140Z,4.80
2023-09-27T10:29:07.491Z,5.13
2023-09-27T10:31:58.087Z,5.28
2023-09-27T10:34:30.452Z,4.85
2023-09-27T10:37:17.299Z,4.80
2023-09-27T10:40:23.003Z,5.10
2023-09-27T10:42:50.358Z,4.82
2023-09-27T10:45:18.425Z,4.82
2023-09-27T10:47:47.983Z,4.68
2023-09-27T10:50:17.735Z,5.85
2023-09-27T10:52:44.738Z,5.57
2023-09-27T10:55:15.492Z,5.05
2023-09-27T10:57:43.282Z,4.85
2023-09-27T11:00:13.607Z,4.90
2023-09-27T11:02:42.904Z,4.30
2023-09-27T11:05:10.325Z,3.80
2023-09-27T11:07:51.539Z,3.50
2023-09-27T11:10:32.604Z,3.88
2023-09-27T11:13:14.185Z,2.85
2023-09-27T11:15:43.065Z,3.53
2023-09-27T11:18:11.548Z,2.85
2023-09-27T11:20:40.739Z,3.33
2023-09-27T11:23:08.318Z,3.70
2023-09-27T11:25:37.242Z,4.20
2023-09-27T11:28:04.644Z,3.40
2023-09-27T11:30:33.623Z,4.10
2023-09-27T11:33:06.285Z,4.10
2023-09-27T11:35:34.054Z,3.90
2023-09-27T11:38:10.230Z,3.80
2023-09-27T11:40:39.463Z,3.72
2023-09-27T11:43:07.093Z,3.95
2023-09-27T11:45:50.785Z,4.00
2023-09-27T11:48:31.723Z,3.47
2023-09-27T11:51:01.003Z,3.00
2023-09-27T11:53:28.827Z,3.22
2023-09-27T11:56:00.724Z,2.50
2023-09-27T11:58:27.888Z,2.13
2023-09-27T12:00:54.706Z,2.30
2023-09-27T12:03:22.075Z,3.30
2023-09-27T12:05:49.751Z,3.08
2023-09-27T12:08:16.928Z,2.85
2023-09-27T12:10:43.949Z,2.78
2023-09-27T12:13:10.721Z,3.30
2023-09-27T12:15:37.570Z,3.13
2023-09-27T12:18:05.124Z,3.15
2023-09-27T12:20:40.970Z,3.55
2023-09-27T12:23:11.142Z,2.92
2023-09-27T12:25:38.647Z,2.70
2023-09-27T12:28:06.113Z,3.05
2023-09-27T12:30:32.980Z,3.13
2023-09-27T12:33:00.027Z,3.42
2023-09-27T12:35:27.580Z,2.97
2023-09-27T12:37:54.505Z,2.60
2023-09-27T12:40:21.285Z,2.50
2023-09-27T12:42:48.337Z,2.88
2023-09-27T12:45:15.158Z,2.38
2023-09-27T12:47:42.889Z,2.85
2023-09-27T12:50:10.230Z,3.25
2023-09-27T12:52:37.205Z,2.55
2023-09-27T12:55:06.367Z,2.75
2023-09-27T12:57:33.524Z,2.00
2023-09-27T13:00:00.428Z,1.70
2023-09-27T13:02:28.309Z,2.08
2023-09-27T13:04:55.544Z,1.65
2023-09-27T13:07:22.355Z,1.80
2023-09-27T13:09:50.297Z,1.17
2023-09-27T13:12:17.595Z,1.52
2023-09-27T13:14:44.384Z,1.70
2023-09-27T13:17:11.551Z,1.90
2023-09-27T13:19:38.629Z,1.85
2023-09-27T13:22:05.410Z,1.70
2023-09-27T13:24:32.622Z,2.00
2023-09-27T13:27:00.360Z,1.95
2023-09-27T13:29:27.395Z,1.80
2023-09-27T13:31:54.398Z,1.70
2023-09-27T13:34:21.251Z,1.52
2023-09-27T13:36:47.986Z,1.52
2023-09-27T13:39:15.630Z,1.55
2023-09-27T13:41:42.874Z,1.60
2023-09-27T13:44:10.257Z,1.40
2023-09-27T13:46:37.532Z,1.45
2023-09-27T13:49:04.812Z,1.50
2023-09-27T13:51:35.909Z,1.48
2023-09-27T13:54:07.873Z,1.65
2023-09-27T13:56:35.025Z,1.83
2023-09-27T13:59:01.951Z,2.30
2023-09-27T14:01:29.841Z,2.08
2023-09-27T14:03:58.205Z,2.35
2023-09-27T14:06:25.073Z,2.22
2023-09-27T14:08:52.783Z,2.67
2023-09-27T14:11:21.695Z,2.63
2023-09-27T14:13:48.499Z,2.70
2023-09-27T14:16:18.557Z,2.65
2023-09-27T14:18:46.082Z,2.40
2023-09-27T14:21:15.542Z,2.20
2023-09-27T14:23:50.541Z,2.85
2023-09-27T14:26:20.291Z,2.83
2023-09-27T14:28:47.597Z,2.92
2023-09-27T14:31:17.926Z,2.72
2023-09-27T14:33:45.166Z,2.60
2023-09-27T14:36:13.224Z,2.67
2023-09-27T14:38:40.082Z,2.78
2023-09-27T14:41:10.705Z,2.72
2023-09-27T14:43:38.486Z,2.97
2023-09-27T14:46:11.882Z,2.70
2023-09-27T14:48:39.660Z,3.15
2023-09-27T14:51:10.685Z,2.92
2023-09-27T14:53:38.397Z,2.78
2023-09-27T14:56:13.917Z,2.60
2023-09-27T14:58:41.578Z,2.50
2023-09-27T15:01:09.013Z,2.13
2023-09-27T15:03:36.156Z,2.45
2023-09-27T15:06:07.010Z,2.83
2023-09-27T15:08:34.457Z,2.58
2023-09-27T15:11:01.797Z,2.75
2023-09-27T15:13:28.882Z,2.40
2023-09-27T15:15:56.070Z,2.35
2023-09-27T15:18:25.717Z,2.42
2023-09-27T15:20:53.437Z,2.10
2023-09-27T15:23:20.712Z,2.33
2023-09-27T15:25:49.273Z,2.17
2023-09-27T15:28:16.664Z,2.97
2023-09-27T15:30:43.517Z,2.90
2023-09-27T15:33:10.660Z,3.25
2023-09-27T15:35:39.295Z,2.60
2023-09-27T15:38:06.683Z,2.90
2023-09-27T15:40:34.508Z,2.45
2023-09-27T15:43:01.940Z,2.50
2023-09-27T15:45:30.261Z,2.80
2023-09-27T15:47:57.416Z,2.72
2023-09-27T15:50:24.289Z,2.83
2023-09-27T15:52:51.171Z,2.80
2023-09-27T15:55:18.323Z,2.67
2023-09-27T15:57:45.495Z,2.97
2023-09-27T16:00:13.001Z,3.08
2023-09-27T16:02:40.549Z,3.17
2023-09-27T16:05:12.056Z,3.13
2023-09-27T16:07:40.394Z,3.00
2023-09-27T16:10:12.850Z,3.33
2023-09-27T16:12:42.506Z,3.40
2023-09-27T16:15:09.848Z,3.50
2023-09-27T16:17:39.353Z,3.38
2023-09-27T16:20:08.340Z,3.20
2023-09-27T16:22:36.004Z,3.20
2023-09-27T16:25:06.530Z,3.40
2023-09-27T16:27:33.776Z,3.42
2023-09-27T16:30:00.686Z,3.30
2023-09-27T16:32:28.201Z,3.88
2023-09-27T16:34:55.390Z,3.50
2023-09-27T16:37:22.201Z,3.58
2023-09-27T16:39:49.444Z,3.58
2023-09-27T16:42:16.602Z,4.13
2023-09-27T16:44:43.779Z,4.07
2023-09-27T16:47:10.592Z,4.05
2023-09-27T16:49:37.591Z,3.33
2023-09-27T16:52:04.564Z,4.07
2023-09-27T16:54:31.342Z,4.40
2023-09-27T16:56:58.622Z,4.22
2023-09-27T16:59:25.589Z,4.43
2023-09-27T17:01:52.467Z,4.20
2023-09-27T17:04:19.461Z,3.72
2023-09-27T17:06:46.320Z,4.57
2023-09-27T17:09:15.426Z,4.10
2023-09-27T17:11:42.743Z,5.18
2023-09-27T17:14:09.686Z,5.55
2023-09-27T17:16:36.504Z,5.18
2023-09-27T17:19:03.806Z,6.07
2023-09-27T17:21:30.571Z,4.95
2023-09-27T17:23:57.514Z,5.88
2023-09-27T17:26:24.509Z,5.07
2023-09-27T17:28:52.266Z,5.82
2023-09-27T17:31:19.220Z,5.43
2023-09-27T17:33:46.443Z,5.82
2023-09-27T17:36:15.048Z,5.57
2023-09-27T17:38:43.181Z,5.70
2023-09-27T17:41:10.767Z,5.60
2023-09-27T17:43:37.859Z,5.90
2023-09-27T17:46:24.855Z,5.90
2023-09-27T17:48:52.454Z,6.32
2023-09-27T17:51:22.492Z,6.63
2023-09-27T17:53:49.441Z,7.17
2023-09-27T17:56:16.354Z,7.00
2023-09-27T17:58:43.255Z,6.60
2023-09-27T18:01:10.337Z,6.27
2023-09-27T18:03:39.235Z,6.40
2023-09-27T18:06:11.229Z,7.40
2023-09-27T18:08:39.931Z,6.80
2023-09-27T18:11:11.500Z,5.90
2023-09-27T18:13:39.071Z,6.30
2023-09-27T18:16:16.792Z,5.63
2023-09-27T18:18:49.466Z,6.20
2023-09-27T18:21:18.840Z,6.40
2023-09-27T18:23:45.956Z,6.83
2023-09-27T18:26:13.095Z,7.10
2023-09-27T18:28:40.992Z,7.60
2023-09-27T18:31:08.805Z,6.90
2023-09-27T18:33:36.194Z,6.80
2023-09-27T18:36:04.135Z,7.47
2023-09-27T18:38:31.189Z,7.27
2023-09-27T18:40:58.730Z,7.80
2023-09-27T18:43:25.736Z,7.47
2023-09-27T18:45:52.657Z,8.23
2023-09-27T18:48:20.262Z,8.53
2023-09-27T18:50:50.637Z,8.50
2023-09-27T18:53:18.305Z,8.57
2023-09-27T18:55:48.566Z,8.37
2023-09-27T18:58:15.823Z,7.93
2023-09-27T19:00:46.057Z,6.60
2023-09-27T19:03:15.290Z,6.70
2023-09-27T19:05:42.607Z,6.90
2023-09-27T19:08:09.867Z,6.90
2023-09-27T19:10:40.299Z,6.87
2023-09-27T19:13:07.379Z,6.60
2023-09-27T19:15:34.802Z,5.87
2023-09-27T19:18:02.107Z,5.67
2023-09-27T19:20:30.665Z,5.30
2023-09-27T19:22:58.544Z,3.53
2023-09-27T19:25:25.468Z,3.50
2023-09-27T19:27:52.705Z,3.43
2023-09-27T19:30:19.931Z,3.10
2023-09-27T19:32:46.865Z,2.73
2023-09-27T19:35:15.510Z,3.30
2023-09-27T19:37:43.573Z,3.00
2023-09-27T19:40:11.217Z,2.97
2023-09-27T19:42:38.496Z,2.80
2023-09-27T19:45:06.701Z,3.17
2023-09-27T19:47:36.116Z,2.97
2023-09-27T19:50:04.597Z,2.97
2023-09-27T19:52:31.829Z,3.00
2023-09-27T19:54:59.145Z,2.70
2023-09-27T19:57:26.087Z,3.35
2023-09-27T19:59:53.626Z,2.83
2023-09-27T20:02:20.832Z,2.40
2023-09-27T20:04:48.298Z,2.35
2023-09-27T20:07:15.526Z,2.72
2023-09-27T20:09:43.142Z,2.70
2023-09-27T20:12:09.993Z,2.80
2023-09-27T20:14:37.579Z,2.60
2023-09-27T20:17:04.675Z,2.65
2023-09-27T20:19:31.833Z,2.72
2023-09-27T20:21:58.971Z,2.63
2023-09-27T20:24:26.920Z,2.38
2023-09-27T20:26:54.009Z,2.72
2023-09-27T20:29:22.488Z,2.47
2023-09-27T20:31:50.180Z,2.33
2023-09-27T20:34:17.398Z,2.33
2023-09-27T20:36:45.054Z,2.53
2023-09-27T20:39:12.121Z,2.63
2023-09-27T20:41:39.060Z,2.42
2023-09-27T20:44:06.996Z,2.20
2023-09-27T20:46:33.996Z,2.28
2023-09-27T20:49:01.891Z,2.50
2023-09-27T20:51:28.937Z,2.47
2023-09-27T20:53:55.938Z,2.40
2023-09-27T20:56:23.273Z,2.85
2023-09-27T20:58:50.419Z,2.80
2023-09-27T21:01:45.084Z,2.27
2023-09-27T21:04:12.551Z,2.33
2023-09-27T21:06:39.558Z,2.38
2023-09-27T21:09:06.460Z,2.33
2023-09-27T21:11:33.755Z,2.75
2023-09-27T21:14:02.075Z,2.25
2023-09-27T21:16:32.708Z,2.72
2023-09-27T21:19:02.085Z,2.33
2023-09-27T21:21:30.928Z,2.20
2023-09-27T21:23:58.085Z,2.67
2023-09-27T21:26:25.450Z,2.20
2023-09-27T21:28:52.487Z,2.30
2023-09-27T21:31:19.893Z,2.50
2023-09-27T21:33:47.442Z,3.03
2023-09-27T21:36:15.513Z,3.03
2023-09-27T21:38:42.655Z,3.33
2023-09-27T21:41:09.921Z,3.40
2023-09-27T21:43:37.140Z,3.22
2023-09-27T21:46:18.531Z,3.20
2023-09-27T21:48:47.023Z,3.20
2023-09-27T21:51:15.604Z,3.20
2023-09-27T21:53:42.794Z,2.90
2023-09-27T21:56:11.035Z,3.10
2023-09-27T21:58:38.313Z,3.13
2023-09-27T22:01:11.378Z,2.77
2023-09-27T22:03:38.771Z,3.00
2023-09-27T22:06:10.039Z,3.27
2023-09-27T22:08:37.172Z,2.90
2023-09-27T22:11:06.804Z,2.93
2023-09-27T22:13:39.505Z,3.00
2023-09-27T22:16:11.811Z,3.00
2023-09-27T22:18:43.125Z,2.70
2023-09-27T22:21:18.691Z,2.90
2023-09-27T22:23:47.701Z,2.70
2023-09-27T22:26:19.208Z,3.17
2023-09-27T22:28:47.257Z,2.70
2023-09-27T22:31:16.283Z,3.00
2023-09-27T22:33:44.981Z,3.00
2023-09-27T22:36:13.023Z,2.97
2023-09-27T22:38:40.926Z,2.73
2023-09-27T22:41:28.125Z,3.07
2023-09-27T22:43:55.215Z,2.50
2023-09-27T22:46:22.217Z,2.70
2023-09-27T22:48:51.693Z,2.60
2023-09-27T22:51:20.178Z,3.00
2023-09-27T22:53:47.117Z,3.67
2023-09-27T22:56:14.239Z,3.20
2023-09-27T22:58:41.012Z,3.00
2023-09-27T23:01:43.627Z,2.83
2023-09-27T23:04:15.307Z,3.13
2023-09-27T23:06:47.064Z,3.30
2023-09-27T23:09:22.007Z,2.60
2023-09-27T23:12:12.105Z,3.23
2023-09-27T23:14:59.597Z,3.17
2023-09-27T23:17:31.984Z,3.00
2023-09-27T23:19:58.937Z,3.20
2023-09-27T23:22:26.592Z,3.07
2023-09-27T23:25:12.174Z,3.43
2023-09-27T23:27:38.987Z,3.20
2023-09-27T23:30:14.004Z,3.27
2023-09-27T23:32:41.301Z,3.20
2023-09-27T23:35:10.665Z,3.23
2023-09-27T23:37:38.217Z,3.47
2023-09-27T23:40:14.756Z,3.53
2023-09-27T23:42:48.314Z,3.70
2023-09-27T23:45:15.361Z,3.90
2023-09-27T23:47:51.214Z,3.60
2023-09-27T23:50:18.658Z,3.70
2023-09-27T23:52:47.228Z,4.03
2023-09-27T23:55:16.714Z,4.00
2023-09-27T23:57:48.020Z,3.80
